MP3/FLAC

‹ prev 2022-09-04 next › 335 release(s) · 48,07 GB · filter: day
Release Group Size Files Date ↓
Tomkin-Defeat_E-Sparks-(TD002)-VINYL-2000-DEF DEF 32,26 MB 6 2022-09-04
Craig_Charles--BBC_Radio_6_Funk_and_Soul_Show-DVBS-09-03-2022-OMA OMA 306,01 MB 4 2022-09-04
Gilles_Peterson--BBC_Radio_6_Music-DVBS-09-03-2022-OMA OMA 310,61 MB 4 2022-09-04
Jamz_Supernova--BBC_Radio_6_Music-DVBS-09-03-2022-OMA OMA 215,42 MB 4 2022-09-04
Klaus_Fiehe--1LiVE_Fiehe-DVBS-08-28-2022-OMA OMA 294,43 MB 6 2022-09-04
Erdi_Irmak-Hillside-(BAM274)-WEB-2022-PTC PTC 36,70 MB 5 2022-09-04
Jon_Sweetname_and_Pat_Lezizmo-Lalibante-(PB076)-WEB-2022-PTC PTC 44,90 MB 6 2022-09-04
Sync_Jupiter_and_Voklems-Leave-(SOVRV099)-WEB-2022-PTC PTC 41,15 MB 8 2022-09-04
No_Moon--Small_Moves_EP-(MTRON026)-WEB-2022-BABAS BABAS 69,32 MB 9 2022-09-04
Firehouse-Category_5-CD-FLAC-1998-ERP ERP 415,03 MB 16 2022-09-04
Latin_Soldier--Andalusian_Acid_Canicas-(TE0076)-WEB-2022-BABAS BABAS 352,20 MB 21 2022-09-04
DJ_Stylewarz_feat._Beka_-_Nicht_echt-SINGLE-WEB-DE-2022-NOiCE NOiCE 6,71 MB 5 2022-09-04
Meowsn--St_Petersburg_Torture_Dance-(VAS061990)-WEB-2022-BABAS BABAS 57,94 MB 11 2022-09-04
Firehouse-Category_5-1998-ERP_INT ERP_INT 121,21 MB 16 2022-09-04
Palermo_Disco_Squad--After_All_These_Tears-(BAP164)-WEB-2022-BABAS BABAS 51,13 MB 8 2022-09-04
VA-Gidi_Hovek_Olam_New_Frontiers-(USTA_2207-2)-CD-FLAC-2002-OCCiPiTAL OCCiPiTAL 416,78 MB 13 2022-09-04
Defenestration-One_Inch_God-CD-FLAC-2001-ERP ERP 284,51 MB 16 2022-09-04
Jonas_Kullhammar_Quartet_With_Norrbotten_Big_Band-Snake_City_North-(MMPCD031)-CD-FLAC-2005-OCCiPiTAL OCCiPiTAL 382,72 MB 12 2022-09-04
Style_Monkeez-Schmelt_Fry_In_Antigo-(CMC6103)-CD-FLAC-1992-OCCiPiTAL OCCiPiTAL 312,15 MB 17 2022-09-04
Tim_Miner-Tim_Miner-(374636350-2)-CD-FLAC-1992-OCCiPiTAL OCCiPiTAL 337,65 MB 15 2022-09-04
VA-Contra_Polar_Activity-(AMBCD4)-CD-FLAC-2003-OCCiPiTAL OCCiPiTAL 418,81 MB 13 2022-09-04
VA-Peak_Performance_WWOZ_On_CD_Sounds_Of_New_Orleans_Spring_2012-PROMO-CD-FLAC-2012-OCCiPiTAL OCCiPiTAL 408,82 MB 12 2022-09-04
VA-Ritual_Dance-(ACIDCD008)-CD-FLAC-2003-OCCiPiTAL OCCiPiTAL 459,80 MB 13 2022-09-04
VA-The_Sound_Of_Club_Kinetic_Volume_II-(VKCD2)-2CD-FLAC-1996-OCCiPiTAL OCCiPiTAL 767,92 MB 6 2022-09-04
VA-Timecode_Encroachment_Compiled_By_Aleph-(TCCD005)-CD-FLAC-2003-OCCiPiTAL OCCiPiTAL 432,44 MB 13 2022-09-04
VA-Solar_Species_Compiled_By_Sahil-(NAMRCD005)-CD-FLAC-2009-OCCiPiTAL OCCiPiTAL 572,94 MB 14 2022-09-04
VA-Sun_Tribe_2_The_Psychedelic_Morning_Trance_Compilation-(PSYSOL005)-2CD-FLAC-2001-OCCiPiTAL OCCiPiTAL 875,06 MB 24 2022-09-04
O.C.-Wordplay-VLS-2001-GCP GCP 46,62 MB 10 2022-09-04
David_Rodigan--BBC_Radio_1Xtra-DVBS-09-04-2022-OMA OMA 219,89 MB 4 2022-09-04
Defenestration-One_Inch_God-2001-ERP_INT ERP_INT 83,28 MB 16 2022-09-04
Utah_Jazz-Sleaze_Brainwash_Optimus_Prime_Remix-(FA006)-VINYL-FLAC-2002-BEATOCUL BEATOCUL 260,22 MB 6 2022-09-04
Alice_Cooper-The_Beast_Of_Alice_Cooper-1989-ERP_INT ERP_INT 93,06 MB 18 2022-09-04
Alice_Cooper-The_Beast_Of_Alice_Cooper-CD-FLAC-1989-ERP ERP 304,59 MB 18 2022-09-04
Rhythm_Assembler-Rhythm_Theories_005-RHYTHM005-WEB-2022-WAV WAV 51,26 MB 8 2022-09-04
VA-Illegal_Alien_XV_Part_4-IARLTDCSTXV4-WEB-2022-WAV WAV 135,90 MB 14 2022-09-04
Alex_Dolby-Transition_Era-EVD46-WEB-2022-WAV WAV 71,08 MB 12 2022-09-04
Nicko_Shuo-Over_Exhaustion_EP-R3UD026-WEB-2022-WAV WAV 57,43 MB 9 2022-09-04
NOAISE-Myoung-DRE422-WEB-2022-WAV WAV 28,42 MB 6 2022-09-04
Altrd_Being-Living_With_A_Velociraptor-CSR008-WEB-2022-WAV WAV 62,17 MB 8 2022-09-04
Nusha-Fall_Back-DM350-WEB-2022-WAV WAV 29,25 MB 6 2022-09-04
Alisha_Rose-Storm-DMR218-WEB-2022-WAV WAV 43,15 MB 7 2022-09-04
D-Block_And_S-Te-Fan_-_Deep_In_My_Soul-(EVO085)-SINGLE-WEB-2022-FMC FMC 10,72 MB 5 2022-09-04
Lidvall-Bald_Wisdom-FAUT045-WEB-2022-WAV WAV 52,35 MB 8 2022-09-04
Brian_Charette-Jackpot-(CM110422)-CD-2022-FANG FANG 88,06 MB 13 2022-09-04
B.A._Johnston-Werewolves_Of_London_Ontario-(TR66-250)-CD-2022-FANG FANG 79,46 MB 23 2022-09-04
B.A._Johnston-Werewolves_Of_London_Ontario-(TR66-250)-CD-FLAC-2022-HOUND HOUND 255,13 MB 23 2022-09-04
Brian_Charette-Jackpot-(CM110422)-CD-FLAC-2022-HOUND HOUND 321,58 MB 13 2022-09-04
Elementz_Of_Noize_And_Rayner-Gravity_Ammonite_Candy_Floss-(12WS001)-SPLIT-VINYL-FLAC-2001-BEATOCUL BEATOCUL 394,07 MB 7 2022-09-04
Roni_Size-Feel_The_Heat_Move_Up-(FCY048)-VINYL-FLAC-2003-BEATOCUL BEATOCUL 244,90 MB 6 2022-09-04
Sample_Rippers_-_Miracle_Maker-(LNGS0348R)-WEB-2010-MARiBOR_INT MARiBOR_INT 47,06 MB 8 2022-09-04